sensor_id;sensor_type;location;lat;lon;timestamp;temperature;humidity
42833;DHT22;64089;51.478;5.692;2022-10-17T00:00:30;14.00;99.90
42833;DHT22;64089;51.478;5.692;2022-10-17T00:02:56;14.00;99.90
42833;DHT22;64089;51.478;5.692;2022-10-17T00:05:22;13.90;99.90
42833;DHT22;64089;51.478;5.692;2022-10-17T00:07:47;13.90;99.90
42833;DHT22;64089;51.478;5.692;2022-10-17T00:10:13;14.00;99.90
42833;DHT22;64089;51.478;5.692;2022-10-17T00:12:38;14.00;99.90
42833;DHT22;64089;51.478;5.692;2022-10-17T00:15:04;14.10;99.90
42833;DHT22;64089;51.478;5.692;2022-10-17T00:17:31;14.10;99.90
42833;DHT22;64089;51.478;5.692;2022-10-17T00:20:00;14.10;99.90
42833;DHT22;64089;51.478;5.692;2022-10-17T00:22:26;14.00;99.90
42833;DHT22;64089;51.478;5.692;2022-10-17T00:24:52;14.10;99.90
42833;DHT22;64089;51.478;5.692;2022-10-17T00:27:17;14.00;99.90
42833;DHT22;64089;51.478;5.692;2022-10-17T00:29:47;14.00;99.90
42833;DHT22;64089;51.478;5.692;2022-10-17T00:32:14;14.10;99.90
42833;DHT22;64089;51.478;5.692;2022-10-17T00:34:39;14.00;99.90
42833;DHT22;64089;51.478;5.692;2022-10-17T00:37:05;14.10;99.90
42833;DHT22;64089;51.478;5.692;2022-10-17T00:39:30;14.00;99.90
42833;DHT22;64089;51.478;5.692;2022-10-17T00:41:56;14.00;99.90
42833;DHT22;64089;51.478;5.692;2022-10-17T00:47:05;14.00;99.90
42833;DHT22;64089;51.478;5.692;2022-10-17T00:49:35;14.00;99.90
42833;DHT22;64089;51.478;5.692;2022-10-17T00:52:04;14.00;99.90
42833;DHT22;64089;51.478;5.692;2022-10-17T00:54:33;13.90;99.90
42833;DHT22;64089;51.478;5.692;2022-10-17T00:57:01;13.90;99.90
42833;DHT22;64089;51.478;5.692;2022-10-17T00:59:28;13.90;99.90
42833;DHT22;64089;51.478;5.692;2022-10-17T01:02:07;13.90;99.90
42833;DHT22;64089;51.478;5.692;2022-10-17T01:04:39;13.90;99.90
42833;DHT22;64089;51.478;5.692;2022-10-17T01:07:05;14.00;99.90
42833;DHT22;64089;51.478;5.692;2022-10-17T01:09:31;14.00;99.90
42833;DHT22;64089;51.478;5.692;2022-10-17T01:25:54;14.10;99.90
42833;DHT22;64089;51.478;5.692;2022-10-17T01:38:59;14.20;99.90
42833;DHT22;64089;51.478;5.692;2022-10-17T01:44:19;14.30;99.90
42833;DHT22;64089;51.478;5.692;2022-10-17T01:46:49;14.30;99.90
42833;DHT22;64089;51.478;5.692;2022-10-17T01:49:17;14.30;99.90
42833;DHT22;64089;51.478;5.692;2022-10-17T01:51:55;14.20;99.90
42833;DHT22;64089;51.478;5.692;2022-10-17T01:54:23;14.20;99.90
42833;DHT22;64089;51.478;5.692;2022-10-17T01:56:56;14.20;99.90
42833;DHT22;64089;51.478;5.692;2022-10-17T01:59:26;14.10;99.90
42833;DHT22;64089;51.478;5.692;2022-10-17T02:01:54;14.20;99.90
42833;DHT22;64089;51.478;5.692;2022-10-17T02:04:20;14.10;99.90
42833;DHT22;64089;51.478;5.692;2022-10-17T02:06:46;14.10;99.90
42833;DHT22;64089;51.478;5.692;2022-10-17T02:20:19;14.10;99.90
42833;DHT22;64089;51.478;5.692;2022-10-17T02:28:20;14.10;99.90
42833;DHT22;64089;51.478;5.692;2022-10-17T02:30:52;14.10;99.90
42833;DHT22;64089;51.478;5.692;2022-10-17T02:33:24;14.00;99.90
42833;DHT22;64089;51.478;5.692;2022-10-17T02:35:55;14.00;99.90
42833;DHT22;64089;51.478;5.692;2022-10-17T02:38:24;14.00;99.90
42833;DHT22;64089;51.478;5.692;2022-10-17T02:40:52;13.90;99.90
42833;DHT22;64089;51.478;5.692;2022-10-17T02:43:18;14.00;99.90
42833;DHT22;64089;51.478;5.692;2022-10-17T02:45:45;13.90;99.90
42833;DHT22;64089;51.478;5.692;2022-10-17T02:56:52;13.90;99.90
42833;DHT22;64089;51.478;5.692;2022-10-17T02:59:21;13.80;99.90
42833;DHT22;64089;51.478;5.692;2022-10-17T03:01:49;13.90;99.90
42833;DHT22;64089;51.478;5.692;2022-10-17T03:04:16;13.90;99.90
42833;DHT22;64089;51.478;5.692;2022-10-17T03:06:44;13.80;99.90
42833;DHT22;64089;51.478;5.692;2022-10-17T03:09:11;13.80;99.90
42833;DHT22;64089;51.478;5.692;2022-10-17T03:11:36;13.90;99.90
42833;DHT22;64089;51.478;5.692;2022-10-17T03:14:02;13.90;99.90
42833;DHT22;64089;51.478;5.692;2022-10-17T03:16:28;13.80;99.90
42833;DHT22;64089;51.478;5.692;2022-10-17T03:18:53;13.80;99.90
42833;DHT22;64089;51.478;5.692;2022-10-17T03:21:19;13.90;99.90
42833;DHT22;64089;51.478;5.692;2022-10-17T03:23:44;13.90;99.90
42833;DHT22;64089;51.478;5.692;2022-10-17T03:26:10;13.90;99.90
42833;DHT22;64089;51.478;5.692;2022-10-17T03:28:36;14.00;99.90
42833;DHT22;64089;51.478;5.692;2022-10-17T03:31:09;14.00;99.90
42833;DHT22;64089;51.478;5.692;2022-10-17T03:33:35;14.00;99.90
42833;DHT22;64089;51.478;5.692;2022-10-17T03:36:28;14.10;99.90
42833;DHT22;64089;51.478;5.692;2022-10-17T03:38:54;14.00;99.90
42833;DHT22;64089;51.478;5.692;2022-10-17T03:41:19;14.10;99.90
42833;DHT22;64089;51.478;5.692;2022-10-17T03:43:45;14.10;99.90
42833;DHT22;64089;51.478;5.692;2022-10-17T03:46:11;14.20;99.90
42833;DHT22;64089;51.478;5.692;2022-10-17T03:48:36;14.20;99.90
42833;DHT22;64089;51.478;5.692;2022-10-17T03:51:07;14.20;99.90
42833;DHT22;64089;51.478;5.692;2022-10-17T03:53:33;14.20;99.90
42833;DHT22;64089;51.478;5.692;2022-10-17T03:56:28;14.20;99.90
42833;DHT22;64089;51.478;5.692;2022-10-17T03:58:54;14.30;99.90
42833;DHT22;64089;51.478;5.692;2022-10-17T04:01:21;14.30;99.90
42833;DHT22;64089;51.478;5.692;2022-10-17T04:03:54;14.30;99.90
42833;DHT22;64089;51.478;5.692;2022-10-17T04:06:20;14.30;99.90
42833;DHT22;64089;51.478;5.692;2022-10-17T04:08:47;14.40;99.90
42833;DHT22;64089;51.478;5.692;2022-10-17T04:11:14;14.50;99.90
42833;DHT22;64089;51.478;5.692;2022-10-17T04:13:41;14.50;99.90
42833;DHT22;64089;51.478;5.692;2022-10-17T04:16:09;14.40;99.90
42833;DHT22;64089;51.478;5.692;2022-10-17T04:18:36;14.40;99.90
42833;DHT22;64089;51.478;5.692;2022-10-17T04:21:02;14.50;99.90
42833;DHT22;64089;51.478;5.692;2022-10-17T04:23:28;14.70;99.90
42833;DHT22;64089;51.478;5.692;2022-10-17T04:25:58;14.80;99.90
42833;DHT22;64089;51.478;5.692;2022-10-17T04:28:24;14.90;99.90
42833;DHT22;64089;51.478;5.692;2022-10-17T04:30:58;14.90;99.90
42833;DHT22;64089;51.478;5.692;2022-10-17T04:33:24;15.00;99.90
42833;DHT22;64089;51.478;5.692;2022-10-17T04:35:59;15.00;99.90
42833;DHT22;64089;51.478;5.692;2022-10-17T04:38:26;15.00;99.90
42833;DHT22;64089;51.478;5.692;2022-10-17T04:40:51;14.90;99.90
42833;DHT22;64089;51.478;5.692;2022-10-17T04:43:17;15.00;99.90
42833;DHT22;64089;51.478;5.692;2022-10-17T04:45:43;15.00;99.90
42833;DHT22;64089;51.478;5.692;2022-10-17T04:48:09;15.00;99.90
42833;DHT22;64089;51.478;5.692;2022-10-17T04:50:34;15.00;99.90
42833;DHT22;64089;51.478;5.692;2022-10-17T04:53:00;15.00;99.90
42833;DHT22;64089;51.478;5.692;2022-10-17T04:55:25;15.00;99.90
42833;DHT22;64089;51.478;5.692;2022-10-17T04:57:51;14.90;99.90
42833;DHT22;64089;51.478;5.692;2022-10-17T05:00:16;14.90;99.90
42833;DHT22;64089;51.478;5.692;2022-10-17T05:02:42;14.90;99.90
42833;DHT22;64089;51.478;5.692;2022-10-17T05:05:08;14.80;99.90
42833;DHT22;64089;51.478;5.692;2022-10-17T05:07:33;14.90;99.90
42833;DHT22;64089;51.478;5.692;2022-10-17T05:09:59;14.90;99.90
42833;DHT22;64089;51.478;5.692;2022-10-17T05:12:24;14.90;99.90
42833;DHT22;64089;51.478;5.692;2022-10-17T05:14:50;14.90;99.90
42833;DHT22;64089;51.478;5.692;2022-10-17T05:17:16;15.00;99.90
42833;DHT22;64089;51.478;5.692;2022-10-17T05:19:41;15.00;99.90
42833;DHT22;64089;51.478;5.692;2022-10-17T05:22:07;15.00;99.90
42833;DHT22;64089;51.478;5.692;2022-10-17T05:24:33;15.10;99.90
42833;DHT22;64089;51.478;5.692;2022-10-17T05:26:58;15.10;99.90
42833;DHT22;64089;51.478;5.692;2022-10-17T05:29:24;15.00;99.90
42833;DHT22;64089;51.478;5.692;2022-10-17T05:31:49;15.00;99.90
42833;DHT22;64089;51.478;5.692;2022-10-17T05:34:15;15.00;99.90
42833;DHT22;64089;51.478;5.692;2022-10-17T05:36:40;15.00;99.90
42833;DHT22;64089;51.478;5.692;2022-10-17T05:39:06;15.00;99.90
42833;DHT22;64089;51.478;5.692;2022-10-17T05:41:33;15.00;99.90
42833;DHT22;64089;51.478;5.692;2022-10-17T05:43:58;15.00;99.90
42833;DHT22;64089;51.478;5.692;2022-10-17T05:46:24;15.00;99.90
42833;DHT22;64089;51.478;5.692;2022-10-17T05:48:50;15.00;99.90
42833;DHT22;64089;51.478;5.692;2022-10-17T05:51:15;15.10;99.90
42833;DHT22;64089;51.478;5.692;2022-10-17T05:53:41;15.10;99.90
42833;DHT22;64089;51.478;5.692;2022-10-17T05:56:09;15.10;99.90
42833;DHT22;64089;51.478;5.692;2022-10-17T05:58:38;15.10;99.90
42833;DHT22;64089;51.478;5.692;2022-10-17T06:01:05;15.10;99.90
42833;DHT22;64089;51.478;5.692;2022-10-17T06:03:31;15.10;99.90
42833;DHT22;64089;51.478;5.692;2022-10-17T06:06:05;15.10;99.90
42833;DHT22;64089;51.478;5.692;2022-10-17T06:08:31;15.00;99.90
42833;DHT22;64089;51.478;5.692;2022-10-17T06:10:57;15.00;99.90
42833;DHT22;64089;51.478;5.692;2022-10-17T06:13:23;15.00;99.90
42833;DHT22;64089;51.478;5.692;2022-10-17T06:15:49;15.00;99.90
42833;DHT22;64089;51.478;5.692;2022-10-17T06:18:14;15.10;99.90
42833;DHT22;64089;51.478;5.692;2022-10-17T06:20:40;15.10;99.90
42833;DHT22;64089;51.478;5.692;2022-10-17T06:23:05;15.20;99.90
42833;DHT22;64089;51.478;5.692;2022-10-17T06:25:32;15.20;99.90
42833;DHT22;64089;51.478;5.692;2022-10-17T06:27:57;15.30;99.90
42833;DHT22;64089;51.478;5.692;2022-10-17T06:30:23;15.30;99.90
42833;DHT22;64089;51.478;5.692;2022-10-17T06:32:51;15.40;99.90
42833;DHT22;64089;51.478;5.692;2022-10-17T06:35:17;15.40;99.90
42833;DHT22;64089;51.478;5.692;2022-10-17T06:37:43;15.50;99.90
42833;DHT22;64089;51.478;5.692;2022-10-17T06:40:09;15.50;99.90
42833;DHT22;64089;51.478;5.692;2022-10-17T06:42:37;15.60;99.90
42833;DHT22;64089;51.478;5.692;2022-10-17T06:45:03;15.60;99.90
42833;DHT22;64089;51.478;5.692;2022-10-17T06:47:28;15.60;99.90
42833;DHT22;64089;51.478;5.692;2022-10-17T06:49:54;15.70;99.90
42833;DHT22;64089;51.478;5.692;2022-10-17T06:52:20;15.70;99.90
42833;DHT22;64089;51.478;5.692;2022-10-17T06:54:45;15.80;99.90
42833;DHT22;64089;51.478;5.692;2022-10-17T06:57:11;15.80;99.90
42833;DHT22;64089;51.478;5.692;2022-10-17T06:59:36;15.90;99.90
42833;DHT22;64089;51.478;5.692;2022-10-17T07:02:02;15.90;99.90
42833;DHT22;64089;51.478;5.692;2022-10-17T07:04:27;16.00;99.90
42833;DHT22;64089;51.478;5.692;2022-10-17T07:06:53;16.00;99.90
42833;DHT22;64089;51.478;5.692;2022-10-17T07:09:19;16.10;99.90
42833;DHT22;64089;51.478;5.692;2022-10-17T07:11:44;16.10;99.90
42833;DHT22;64089;51.478;5.692;2022-10-17T07:14:10;16.20;99.90
42833;DHT22;64089;51.478;5.692;2022-10-17T07:16:36;16.20;99.90
42833;DHT22;64089;51.478;5.692;2022-10-17T07:19:01;16.20;99.90
42833;DHT22;64089;51.478;5.692;2022-10-17T07:21:27;16.30;99.90
42833;DHT22;64089;51.478;5.692;2022-10-17T07:23:52;16.30;99.90
42833;DHT22;64089;51.478;5.692;2022-10-17T07:26:18;16.40;99.90
42833;DHT22;64089;51.478;5.692;2022-10-17T07:28:46;16.50;99.90
42833;DHT22;64089;51.478;5.692;2022-10-17T07:31:16;16.50;99.90
42833;DHT22;64089;51.478;5.692;2022-10-17T07:33:42;16.60;99.90
42833;DHT22;64089;51.478;5.692;2022-10-17T07:36:11;16.60;99.90
42833;DHT22;64089;51.478;5.692;2022-10-17T07:38:37;16.70;99.90
42833;DHT22;64089;51.478;5.692;2022-10-17T07:41:05;16.80;99.90
42833;DHT22;64089;51.478;5.692;2022-10-17T07:43:31;16.80;99.90
42833;DHT22;64089;51.478;5.692;2022-10-17T07:45:57;16.70;99.90
42833;DHT22;64089;51.478;5.692;2022-10-17T07:48:23;16.70;99.90
42833;DHT22;64089;51.478;5.692;2022-10-17T07:50:49;16.70;99.90
42833;DHT22;64089;51.478;5.692;2022-10-17T07:53:15;16.80;99.90
42833;DHT22;64089;51.478;5.692;2022-10-17T07:55:41;16.90;99.90
42833;DHT22;64089;51.478;5.692;2022-10-17T07:58:08;16.90;99.90
42833;DHT22;64089;51.478;5.692;2022-10-17T08:00:35;17.00;99.90
42833;DHT22;64089;51.478;5.692;2022-10-17T08:03:01;17.00;99.90
42833;DHT22;64089;51.478;5.692;2022-10-17T08:05:28;17.10;99.90
42833;DHT22;64089;51.478;5.692;2022-10-17T08:07:53;17.30;99.90
42833;DHT22;64089;51.478;5.692;2022-10-17T08:10:19;17.30;99.90
42833;DHT22;64089;51.478;5.692;2022-10-17T08:12:45;17.40;99.90
42833;DHT22;64089;51.478;5.692;2022-10-17T08:15:11;17.40;99.90
42833;DHT22;64089;51.478;5.692;2022-10-17T08:17:38;17.50;99.90
42833;DHT22;64089;51.478;5.692;2022-10-17T08:20:04;17.60;99.90
42833;DHT22;64089;51.478;5.692;2022-10-17T08:22:31;17.80;99.90
42833;DHT22;64089;51.478;5.692;2022-10-17T08:24:57;18.00;99.90
42833;DHT22;64089;51.478;5.692;2022-10-17T08:27:23;18.00;99.90
42833;DHT22;64089;51.478;5.692;2022-10-17T08:29:50;18.10;99.90
42833;DHT22;64089;51.478;5.692;2022-10-17T08:32:25;18.10;99.90
42833;DHT22;64089;51.478;5.692;2022-10-17T08:34:51;18.20;99.90
42833;DHT22;64089;51.478;5.692;2022-10-17T08:37:17;18.10;99.90
42833;DHT22;64089;51.478;5.692;2022-10-17T08:39:43;18.00;99.90
42833;DHT22;64089;51.478;5.692;2022-10-17T08:47:39;17.90;99.90
42833;DHT22;64089;51.478;5.692;2022-10-17T08:50:11;17.90;99.90
42833;DHT22;64089;51.478;5.692;2022-10-17T08:55:07;17.80;99.90
42833;DHT22;64089;51.478;5.692;2022-10-17T08:57:36;17.90;99.90
42833;DHT22;64089;51.478;5.692;2022-10-17T09:00:01;18.00;99.90
42833;DHT22;64089;51.478;5.692;2022-10-17T09:02:46;18.10;99.90
42833;DHT22;64089;51.478;5.692;2022-10-17T09:05:40;18.20;99.90
42833;DHT22;64089;51.478;5.692;2022-10-17T09:11:35;18.10;99.90
42833;DHT22;64089;51.478;5.692;2022-10-17T09:17:07;18.10;99.90
42833;DHT22;64089;51.478;5.692;2022-10-17T09:19:53;18.00;99.90
42833;DHT22;64089;51.478;5.692;2022-10-17T09:22:24;17.80;99.90
42833;DHT22;64089;51.478;5.692;2022-10-17T09:24:58;17.70;99.90
42833;DHT22;64089;51.478;5.692;2022-10-17T09:27:34;17.50;99.90
42833;DHT22;64089;51.478;5.692;2022-10-17T09:32:57;17.30;99.90
42833;DHT22;64089;51.478;5.692;2022-10-17T09:35:23;17.20;99.90
42833;DHT22;64089;51.478;5.692;2022-10-17T09:37:49;17.00;99.90
42833;DHT22;64089;51.478;5.692;2022-10-17T09:40:23;17.00;99.90
42833;DHT22;64089;51.478;5.692;2022-10-17T09:42:49;16.90;99.90
42833;DHT22;64089;51.478;5.692;2022-10-17T09:45:16;17.00;99.90
42833;DHT22;64089;51.478;5.692;2022-10-17T09:50:33;16.80;99.90
42833;DHT22;64089;51.478;5.692;2022-10-17T09:53:21;16.70;99.90
42833;DHT22;64089;51.478;5.692;2022-10-17T09:55:55;16.80;99.90
42833;DHT22;64089;51.478;5.692;2022-10-17T09:58:21;16.80;99.90
42833;DHT22;64089;51.478;5.692;2022-10-17T10:00:47;16.80;99.90
42833;DHT22;64089;51.478;5.692;2022-10-17T10:08:30;16.80;99.90
42833;DHT22;64089;51.478;5.692;2022-10-17T10:10:58;16.80;99.90
42833;DHT22;64089;51.478;5.692;2022-10-17T10:13:25;16.80;99.90
42833;DHT22;64089;51.478;5.692;2022-10-17T10:15:51;16.80;99.90
42833;DHT22;64089;51.478;5.692;2022-10-17T10:18:34;16.80;99.90
42833;DHT22;64089;51.478;5.692;2022-10-17T10:21:16;16.80;99.90
42833;DHT22;64089;51.478;5.692;2022-10-17T10:24:02;16.70;99.90
42833;DHT22;64089;51.478;5.692;2022-10-17T10:26:37;16.80;99.90
42833;DHT22;64089;51.478;5.692;2022-10-17T10:29:16;16.80;99.90
42833;DHT22;64089;51.478;5.692;2022-10-17T10:31:43;16.80;99.90
42833;DHT22;64089;51.478;5.692;2022-10-17T10:34:25;16.80;99.90
42833;DHT22;64089;51.478;5.692;2022-10-17T10:36:56;16.80;99.90
42833;DHT22;64089;51.478;5.692;2022-10-17T10:39:36;16.80;99.90
42833;DHT22;64089;51.478;5.692;2022-10-17T10:42:06;16.90;99.90
42833;DHT22;64089;51.478;5.692;2022-10-17T10:44:33;16.90;99.90
42833;DHT22;64089;51.478;5.692;2022-10-17T10:47:29;17.00;99.90
42833;DHT22;64089;51.478;5.692;2022-10-17T10:55:33;17.30;99.90
42833;DHT22;64089;51.478;5.692;2022-10-17T10:58:04;17.40;99.90
42833;DHT22;64089;51.478;5.692;2022-10-17T11:00:33;17.30;99.90
42833;DHT22;64089;51.478;5.692;2022-10-17T11:03:17;17.40;99.90
42833;DHT22;64089;51.478;5.692;2022-10-17T11:05:51;17.40;99.90
42833;DHT22;64089;51.478;5.692;2022-10-17T11:08:28;17.40;99.90
42833;DHT22;64089;51.478;5.692;2022-10-17T11:11:01;17.50;99.90
42833;DHT22;64089;51.478;5.692;2022-10-17T11:13:36;17.50;99.90
42833;DHT22;64089;51.478;5.692;2022-10-17T11:21:44;17.70;99.90
42833;DHT22;64089;51.478;5.692;2022-10-17T11:24:24;17.80;99.90
42833;DHT22;64089;51.478;5.692;2022-10-17T11:26:58;18.00;99.90
42833;DHT22;64089;51.478;5.692;2022-10-17T11:29:28;17.90;99.90
42833;DHT22;64089;51.478;5.692;2022-10-17T11:31:57;17.90;99.90
42833;DHT22;64089;51.478;5.692;2022-10-17T11:34:26;17.90;99.90
42833;DHT22;64089;51.478;5.692;2022-10-17T11:37:01;17.70;99.90
42833;DHT22;64089;51.478;5.692;2022-10-17T11:39:39;17.70;99.90
42833;DHT22;64089;51.478;5.692;2022-10-17T11:42:11;17.60;99.90
42833;DHT22;64089;51.478;5.692;2022-10-17T11:44:39;17.60;99.90
42833;DHT22;64089;51.478;5.692;2022-10-17T11:47:27;17.50;99.90
42833;DHT22;64089;51.478;5.692;2022-10-17T11:53:09;17.50;99.90
42833;DHT22;64089;51.478;5.692;2022-10-17T11:55:36;17.50;99.90
42833;DHT22;64089;51.478;5.692;2022-10-17T12:03:43;17.50;99.90
42833;DHT22;64089;51.478;5.692;2022-10-17T12:12:05;17.50;99.90
42833;DHT22;64089;51.478;5.692;2022-10-17T12:14:40;17.60;99.90
42833;DHT22;64089;51.478;5.692;2022-10-17T12:19:47;17.50;99.90
42833;DHT22;64089;51.478;5.692;2022-10-17T12:22:23;17.50;99.90
42833;DHT22;64089;51.478;5.692;2022-10-17T12:27:38;17.60;99.90
42833;DHT22;64089;51.478;5.692;2022-10-17T12:33:04;17.70;99.90
42833;DHT22;64089;51.478;5.692;2022-10-17T12:35:32;17.70;99.90
42833;DHT22;64089;51.478;5.692;2022-10-17T12:38:14;17.70;99.90
42833;DHT22;64089;51.478;5.692;2022-10-17T12:45:53;17.80;99.90
42833;DHT22;64089;51.478;5.692;2022-10-17T12:53:46;18.20;99.90
42833;DHT22;64089;51.478;5.692;2022-10-17T12:56:17;18.40;99.90
42833;DHT22;64089;51.478;5.692;2022-10-17T12:58:45;18.40;99.90
42833;DHT22;64089;51.478;5.692;2022-10-17T13:01:17;18.40;99.90
42833;DHT22;64089;51.478;5.692;2022-10-17T13:03:45;18.50;99.90
42833;DHT22;64089;51.478;5.692;2022-10-17T13:06:20;18.40;99.90
42833;DHT22;64089;51.478;5.692;2022-10-17T13:08:59;18.50;99.90
42833;DHT22;64089;51.478;5.692;2022-10-17T13:11:28;18.50;99.90
42833;DHT22;64089;51.478;5.692;2022-10-17T13:13:58;18.50;99.90
42833;DHT22;64089;51.478;5.692;2022-10-17T13:16:39;18.40;99.90
42833;DHT22;64089;51.478;5.692;2022-10-17T13:19:13;18.50;99.90
42833;DHT22;64089;51.478;5.692;2022-10-17T13:21:52;18.50;99.90
42833;DHT22;64089;51.478;5.692;2022-10-17T13:24:21;18.30;99.90
42833;DHT22;64089;51.478;5.692;2022-10-17T13:26:47;18.30;99.90
42833;DHT22;64089;51.478;5.692;2022-10-17T13:29:15;18.20;99.90
42833;DHT22;64089;51.478;5.692;2022-10-17T13:31:43;18.20;99.90
42833;DHT22;64089;51.478;5.692;2022-10-17T13:34:18;18.20;99.90
42833;DHT22;64089;51.478;5.692;2022-10-17T13:36:50;18.20;99.90
42833;DHT22;64089;51.478;5.692;2022-10-17T13:39:22;18.10;99.90
42833;DHT22;64089;51.478;5.692;2022-10-17T13:41:50;18.10;99.90
42833;DHT22;64089;51.478;5.692;2022-10-17T13:44:22;18.00;99.90
42833;DHT22;64089;51.478;5.692;2022-10-17T13:46:48;17.90;99.90
42833;DHT22;64089;51.478;5.692;2022-10-17T13:49:30;17.90;99.90
42833;DHT22;64089;51.478;5.692;2022-10-17T13:51:56;17.90;99.90
42833;DHT22;64089;51.478;5.692;2022-10-17T13:54:40;17.90;99.90
42833;DHT22;64089;51.478;5.692;2022-10-17T13:59:43;18.00;99.90
42833;DHT22;64089;51.478;5.692;2022-10-17T14:02:23;18.00;99.90
42833;DHT22;64089;51.478;5.692;2022-10-17T14:05:19;18.00;99.90
42833;DHT22;64089;51.478;5.692;2022-10-17T14:07:50;18.00;99.90
42833;DHT22;64089;51.478;5.692;2022-10-17T14:12:51;17.90;99.90
42833;DHT22;64089;51.478;5.692;2022-10-17T14:15:17;17.90;99.90
42833;DHT22;64089;51.478;5.692;2022-10-17T14:17:45;17.90;99.90
42833;DHT22;64089;51.478;5.692;2022-10-17T14:20:18;17.90;99.90
42833;DHT22;64089;51.478;5.692;2022-10-17T14:22:45;17.80;99.90
42833;DHT22;64089;51.478;5.692;2022-10-17T14:25:34;17.80;99.90
42833;DHT22;64089;51.478;5.692;2022-10-17T14:30:36;17.70;99.90
42833;DHT22;64089;51.478;5.692;2022-10-17T14:33:06;17.60;99.90
42833;DHT22;64089;51.478;5.692;2022-10-17T14:35:32;17.70;99.90
42833;DHT22;64089;51.478;5.692;2022-10-17T14:38:00;17.70;99.90
42833;DHT22;64089;51.478;5.692;2022-10-17T14:40:28;17.80;99.90
42833;DHT22;64089;51.478;5.692;2022-10-17T14:42:57;17.90;99.90
42833;DHT22;64089;51.478;5.692;2022-10-17T14:45:29;17.90;99.90
42833;DHT22;64089;51.478;5.692;2022-10-17T14:48:02;17.90;99.90
42833;DHT22;64089;51.478;5.692;2022-10-17T14:50:30;17.80;99.90
42833;DHT22;64089;51.478;5.692;2022-10-17T14:55:38;17.80;99.90
42833;DHT22;64089;51.478;5.692;2022-10-17T14:58:18;17.80;99.90
42833;DHT22;64089;51.478;5.692;2022-10-17T15:00:46;17.70;99.90
42833;DHT22;64089;51.478;5.692;2022-10-17T15:03:12;17.70;99.90
42833;DHT22;64089;51.478;5.692;2022-10-17T15:05:38;17.70;99.90
42833;DHT22;64089;51.478;5.692;2022-10-17T15:08:09;17.60;99.90
42833;DHT22;64089;51.478;5.692;2022-10-17T15:10:37;17.70;99.90
42833;DHT22;64089;51.478;5.692;2022-10-17T15:13:06;17.70;99.90
42833;DHT22;64089;51.478;5.692;2022-10-17T15:15:32;17.70;99.90
42833;DHT22;64089;51.478;5.692;2022-10-17T15:17:58;17.70;99.90
42833;DHT22;64089;51.478;5.692;2022-10-17T15:20:25;17.70;99.90
42833;DHT22;64089;51.478;5.692;2022-10-17T15:22:57;17.60;99.90
42833;DHT22;64089;51.478;5.692;2022-10-17T15:25:23;17.60;99.90
42833;DHT22;64089;51.478;5.692;2022-10-17T15:27:49;17.60;99.90
42833;DHT22;64089;51.478;5.692;2022-10-17T15:30:21;17.70;99.90
42833;DHT22;64089;51.478;5.692;2022-10-17T15:32:48;17.70;99.90
42833;DHT22;64089;51.478;5.692;2022-10-17T15:35:14;17.70;99.90
42833;DHT22;64089;51.478;5.692;2022-10-17T15:37:41;17.70;99.90
42833;DHT22;64089;51.478;5.692;2022-10-17T15:40:13;17.80;99.90
42833;DHT22;64089;51.478;5.692;2022-10-17T15:42:39;17.70;99.90
42833;DHT22;64089;51.478;5.692;2022-10-17T15:45:06;17.80;99.90
42833;DHT22;64089;51.478;5.692;2022-10-17T15:47:32;17.70;99.90
42833;DHT22;64089;51.478;5.692;2022-10-17T15:49:59;17.70;99.90
42833;DHT22;64089;51.478;5.692;2022-10-17T15:52:26;17.70;99.90
42833;DHT22;64089;51.478;5.692;2022-10-17T15:54:52;17.60;99.90
42833;DHT22;64089;51.478;5.692;2022-10-17T15:57:24;17.60;99.90
42833;DHT22;64089;51.478;5.692;2022-10-17T15:59:50;17.50;99.90
42833;DHT22;64089;51.478;5.692;2022-10-17T16:02:18;17.40;99.90
42833;DHT22;64089;51.478;5.692;2022-10-17T16:04:44;17.40;99.90
42833;DHT22;64089;51.478;5.692;2022-10-17T16:07:10;17.40;99.90
42833;DHT22;64089;51.478;5.692;2022-10-17T16:09:36;17.40;99.90
42833;DHT22;64089;51.478;5.692;2022-10-17T16:12:04;17.30;99.90
42833;DHT22;64089;51.478;5.692;2022-10-17T16:14:29;17.20;99.90
42833;DHT22;64089;51.478;5.692;2022-10-17T16:16:57;17.20;99.90
42833;DHT22;64089;51.478;5.692;2022-10-17T16:19:24;17.10;99.90
42833;DHT22;64089;51.478;5.692;2022-10-17T16:21:57;17.10;99.90
42833;DHT22;64089;51.478;5.692;2022-10-17T16:24:24;17.10;99.90
42833;DHT22;64089;51.478;5.692;2022-10-17T16:26:50;17.00;99.90
42833;DHT22;64089;51.478;5.692;2022-10-17T16:29:15;17.00;99.90
42833;DHT22;64089;51.478;5.692;2022-10-17T16:31:43;17.00;99.90
42833;DHT22;64089;51.478;5.692;2022-10-17T16:34:12;16.90;99.90
42833;DHT22;64089;51.478;5.692;2022-10-17T16:36:38;16.90;99.90
42833;DHT22;64089;51.478;5.692;2022-10-17T16:39:05;17.00;99.90
42833;DHT22;64089;51.478;5.692;2022-10-17T16:41:35;17.00;99.90
42833;DHT22;64089;51.478;5.692;2022-10-17T16:44:06;17.10;99.90
42833;DHT22;64089;51.478;5.692;2022-10-17T16:46:35;17.10;99.90
42833;DHT22;64089;51.478;5.692;2022-10-17T16:49:03;17.10;99.90
42833;DHT22;64089;51.478;5.692;2022-10-17T16:51:29;17.10;99.90
42833;DHT22;64089;51.478;5.692;2022-10-17T16:53:55;17.20;99.90
42833;DHT22;64089;51.478;5.692;2022-10-17T16:56:24;17.10;99.90
42833;DHT22;64089;51.478;5.692;2022-10-17T16:58:54;17.00;99.90
42833;DHT22;64089;51.478;5.692;2022-10-17T17:01:22;16.90;99.90
42833;DHT22;64089;51.478;5.692;2022-10-17T17:03:48;16.80;99.90
42833;DHT22;64089;51.478;5.692;2022-10-17T17:06:16;16.70;99.90
42833;DHT22;64089;51.478;5.692;2022-10-17T17:08:42;16.70;99.90
42833;DHT22;64089;51.478;5.692;2022-10-17T17:11:13;16.60;99.90
42833;DHT22;64089;51.478;5.692;2022-10-17T17:13:38;16.60;99.90
42833;DHT22;64089;51.478;5.692;2022-10-17T17:18:32;16.50;99.90
42833;DHT22;64089;51.478;5.692;2022-10-17T17:20:59;16.40;99.90
42833;DHT22;64089;51.478;5.692;2022-10-17T17:23:25;16.40;99.90
42833;DHT22;64089;51.478;5.692;2022-10-17T17:26:02;16.40;99.90
42833;DHT22;64089;51.478;5.692;2022-10-17T17:28:29;16.30;99.90
42833;DHT22;64089;51.478;5.692;2022-10-17T17:30:55;16.30;99.90
42833;DHT22;64089;51.478;5.692;2022-10-17T17:33:22;16.30;99.90
42833;DHT22;64089;51.478;5.692;2022-10-17T17:35:54;16.30;99.90
42833;DHT22;64089;51.478;5.692;2022-10-17T17:38:20;16.30;99.90
42833;DHT22;64089;51.478;5.692;2022-10-17T17:40:46;16.20;99.90
42833;DHT22;64089;51.478;5.692;2022-10-17T17:43:12;16.20;99.90
42833;DHT22;64089;51.478;5.692;2022-10-17T17:45:37;16.30;99.90
42833;DHT22;64089;51.478;5.692;2022-10-17T17:48:03;16.20;99.90
42833;DHT22;64089;51.478;5.692;2022-10-17T17:50:29;16.20;99.90
42833;DHT22;64089;51.478;5.692;2022-10-17T17:52:55;16.20;99.90
42833;DHT22;64089;51.478;5.692;2022-10-17T17:55:20;16.20;99.90
42833;DHT22;64089;51.478;5.692;2022-10-17T17:57:46;16.20;99.90